Fire Island Natl Seashore, New York
Current Conditions -  °F | °C
As of 8:56 AM on Monday 24 Nov 2014 (Local Time) from KISP Reporting Station
Light Rain Light Rain  
Wind Chill: 60°   Ceiling: 400
Heat Index: 60°   Visibility: 1mi
Dew Point: 58°   Wind: 17mph
Humidity: 93%   Direction: 190°S
Pressure: 29.71"   Gusts: 31mph
Location:  40.67°N, 73.04°W
Report Text: KISP 241356Z 19015G27KT 1SM R06/P6000FT -RA BR BKN004 OVC010 16/14 A2971 RMK AO2 PK WND 19030/1336 SFC VIS 3 RAE07B26 SLP062 P0002 T01560144
Loading
Personal Weather Stations






























Interactive Weather Map New forecast layout! Learn more

10-Day Weather Forecast

Advertisements
Track Severe Weather on mobile